createdAt,value
2022-10-23T00:00:20.684Z,100525.97
2022-10-23T00:02:56.967Z,100498.63
2022-10-23T00:05:26.813Z,100519.72
2022-10-23T00:07:56.402Z,100518.06
2022-10-23T00:10:25.468Z,100475.03
2022-10-23T00:12:55.760Z,100362.59
2022-10-23T00:15:27.650Z,100514.34
2022-10-23T00:17:55.814Z,100358.63
2022-10-23T00:20:24.703Z,100437.34
2022-10-23T00:22:53.752Z,100516.91
2022-10-23T00:25:22.020Z,100441.72
2022-10-23T00:27:50.484Z,100434.97
2022-10-23T00:30:20.789Z,100521.44
2022-10-23T00:32:51.486Z,100503.63
2022-10-23T00:35:19.910Z,100505.31
2022-10-23T00:37:50.439Z,100507.00
2022-10-23T00:40:20.895Z,100460.00
2022-10-23T00:42:49.654Z,100504.31
2022-10-23T00:45:23.829Z,100498.25
2022-10-23T00:47:53.126Z,100508.16
2022-10-23T00:50:25.829Z,100502.78
2022-10-23T00:52:55.840Z,100496.56
2022-10-23T00:55:26.491Z,100492.88
2022-10-23T00:57:54.924Z,100493.03
2022-10-23T01:00:27.800Z,100364.28
2022-10-23T01:02:57.017Z,100492.88
2022-10-23T01:05:32.046Z,100491.19
2022-10-23T01:08:09.098Z,100471.63
2022-10-23T01:10:42.682Z,100487.50
2022-10-23T01:13:16.797Z,100474.31
2022-10-23T01:15:52.599Z,100492.88
2022-10-23T01:18:32.864Z,100485.81
2022-10-23T01:21:07.168Z,100411.22
2022-10-23T01:23:58.539Z,100458.50
2022-10-23T01:26:39.111Z,100346.81
2022-10-23T01:29:15.628Z,100481.31
2022-10-23T01:31:50.613Z,100400.28
2022-10-23T01:34:25.495Z,100479.44
2022-10-23T01:36:55.620Z,100480.44
2022-10-23T01:39:29.796Z,100406.97
2022-10-23T01:42:05.414Z,100459.31
2022-10-23T01:44:40.250Z,100476.75
2022-10-23T01:47:11.359Z,100485.81
2022-10-23T01:49:42.478Z,100484.16
2022-10-23T01:52:15.846Z,100370.94
2022-10-23T01:54:45.838Z,100480.44
2022-10-23T01:57:20.300Z,100473.41
2022-10-23T02:00:00.420Z,100469.72
2022-10-23T02:02:32.197Z,100468.03
2022-10-23T02:05:04.695Z,100420.75
2022-10-23T02:07:33.785Z,100459.56
2022-10-23T02:10:02.109Z,100432.25
2022-10-23T02:12:43.001Z,100440.97
2022-10-23T02:15:16.725Z,100467.03
2022-10-23T02:17:52.352Z,100454.19
2022-10-23T02:20:27.742Z,100453.59
2022-10-23T02:23:02.615Z,100456.28
2022-10-23T02:25:36.800Z,100401.25
2022-10-23T02:28:08.380Z,100448.22
2022-10-23T02:30:44.324Z,100423.19
2022-10-23T02:33:13.833Z,100414.47
2022-10-23T02:35:42.784Z,100448.22
2022-10-23T02:38:32.975Z,100448.22
2022-10-23T02:41:13.080Z,100442.84
2022-10-23T02:43:50.732Z,100449.06
2022-10-23T02:46:26.640Z,100444.53
2022-10-23T02:49:05.362Z,100444.53
2022-10-23T02:51:45.053Z,100432.97
2022-10-23T02:54:21.391Z,100413.75
2022-10-23T02:56:58.659Z,100436.09
2022-10-23T02:59:33.511Z,100433.72
2022-10-23T03:02:20.961Z,100439.16
2022-10-23T03:04:50.055Z,100432.72
2022-10-23T03:07:21.011Z,100444.53
2022-10-23T03:09:52.435Z,100426.28
2022-10-23T03:12:21.298Z,100445.69
2022-10-23T03:14:49.408Z,100427.97
2022-10-23T03:17:19.581Z,100441.84
2022-10-23T03:19:49.073Z,100416.50
2022-10-23T03:22:20.331Z,100433.78
2022-10-23T03:24:49.300Z,100434.63
2022-10-23T03:27:18.095Z,100354.16
2022-10-23T03:29:47.004Z,100368.56
2022-10-23T03:32:16.860Z,100436.47
2022-10-23T03:34:48.444Z,100440.88
2022-10-23T03:37:18.341Z,100444.53
2022-10-23T03:39:46.754Z,100440.00
2022-10-23T03:42:17.379Z,100433.78
2022-10-23T03:44:45.849Z,100431.09
2022-10-23T03:47:14.021Z,100436.47
2022-10-23T03:49:43.062Z,100433.78
2022-10-23T03:52:13.382Z,100414.94
2022-10-23T03:54:41.799Z,100420.00
2022-10-23T03:57:10.167Z,100430.13
2022-10-23T03:59:38.744Z,100428.09
2022-10-23T04:02:10.802Z,100418.84
2022-10-23T04:04:40.106Z,100396.34
2022-10-23T04:07:09.872Z,100435.50
2022-10-23T04:09:40.343Z,100437.19
2022-10-23T04:12:09.491Z,100431.81
2022-10-23T04:14:38.094Z,100440.88
2022-10-23T04:17:06.207Z,100440.00
2022-10-23T04:19:34.962Z,100444.53
2022-10-23T04:22:03.624Z,100438.34
2022-10-23T04:24:32.171Z,100373.94
2022-10-23T04:27:02.471Z,100439.16
2022-10-23T04:29:32.523Z,100443.72
2022-10-23T04:32:01.451Z,100291.72
2022-10-23T04:34:29.601Z,100367.56
2022-10-23T04:36:57.692Z,100354.19
2022-10-23T04:39:25.849Z,100379.00
2022-10-23T04:41:57.558Z,100442.53
2022-10-23T04:44:27.573Z,100447.91
2022-10-23T04:47:00.425Z,100455.97
2022-10-23T04:49:28.636Z,100444.69
2022-10-23T04:52:02.058Z,100447.91
2022-10-23T04:54:30.600Z,100451.63
2022-10-23T04:57:00.833Z,100443.16
2022-10-23T04:59:35.761Z,100457.81
2022-10-23T05:02:04.472Z,100451.63
2022-10-23T05:04:33.313Z,100389.28
2022-10-23T05:07:03.713Z,100395.13
2022-10-23T05:09:36.164Z,100456.97
2022-10-23T05:12:05.163Z,100455.56
2022-10-23T05:14:35.457Z,100452.88
2022-10-23T05:17:12.148Z,100455.28
2022-10-23T05:19:44.434Z,100392.28
2022-10-23T05:22:13.887Z,100462.34
2022-10-23T05:24:42.771Z,100463.19
2022-10-23T05:27:12.811Z,100446.28
2022-10-23T05:29:42.686Z,100462.34
2022-10-23T05:32:15.278Z,100377.06
2022-10-23T05:34:45.923Z,100470.00
2022-10-23T05:37:16.205Z,100459.66
2022-10-23T05:39:44.819Z,100385.34
2022-10-23T05:42:13.400Z,100469.41
2022-10-23T05:44:43.592Z,100474.78
2022-10-23T05:47:12.194Z,100464.03
2022-10-23T05:49:41.326Z,100448.53
2022-10-23T05:52:13.563Z,100437.53
2022-10-23T05:54:42.534Z,100294.34
2022-10-23T05:57:11.858Z,100462.19
2022-10-23T05:59:46.304Z,100458.66
2022-10-23T06:02:16.214Z,100463.03
2022-10-23T06:04:45.727Z,100376.78
2022-10-23T06:07:16.205Z,100463.03
2022-10-23T06:09:45.382Z,100456.84
2022-10-23T06:12:15.670Z,100393.09
2022-10-23T06:14:46.436Z,100451.41
2022-10-23T06:17:15.327Z,100470.25
2022-10-23T06:19:49.467Z,100463.19
2022-10-23T06:24:48.275Z,100397.66
2022-10-23T06:27:17.665Z,100466.31
2022-10-23T06:29:47.514Z,100451.81
2022-10-23T06:32:15.970Z,100471.09
2022-10-23T06:34:44.198Z,100479.16
2022-10-23T06:37:12.750Z,100476.44
2022-10-23T06:39:41.607Z,100479.16
2022-10-23T06:42:09.904Z,100481.81
2022-10-23T06:44:40.213Z,100477.31
2022-10-23T06:47:10.794Z,100464.94
2022-10-23T06:49:38.840Z,100487.19
2022-10-23T06:52:14.248Z,100487.19
2022-10-23T06:54:51.497Z,100407.22
2022-10-23T06:57:19.619Z,100481.81
2022-10-23T06:59:48.257Z,100484.66
2022-10-23T07:02:19.387Z,100492.88
2022-10-23T07:04:49.288Z,100465.53
2022-10-23T07:07:17.577Z,100496.25
2022-10-23T07:09:51.386Z,100497.94
2022-10-23T07:12:19.393Z,100495.25
2022-10-23T07:14:47.473Z,100488.22
2022-10-23T07:17:15.746Z,100420.25
2022-10-23T07:19:45.333Z,100475.97
2022-10-23T07:22:15.788Z,100335.78
2022-10-23T07:24:44.316Z,100507.00
2022-10-23T07:27:12.327Z,100494.59
2022-10-23T07:29:40.380Z,100501.63
2022-10-23T07:32:09.280Z,100498.94
2022-10-23T07:34:38.789Z,100436.03
2022-10-23T07:37:08.181Z,100499.97
2022-10-23T07:39:36.472Z,100505.31
2022-10-23T07:42:04.760Z,100502.94
2022-10-23T07:44:32.759Z,100426.50
2022-10-23T07:47:00.858Z,100513.53
2022-10-23T07:49:37.875Z,100505.38
2022-10-23T07:52:07.753Z,100521.44
2022-10-23T07:54:36.033Z,100446.47
2022-10-23T07:57:04.099Z,100509.00
2022-10-23T07:59:35.854Z,100508.16
2022-10-23T08:02:13.249Z,100510.69
2022-10-23T08:04:42.656Z,100518.06
2022-10-23T08:07:12.242Z,100521.59
2022-10-23T08:09:40.537Z,100516.41
2022-10-23T08:12:08.997Z,100419.53
2022-10-23T08:14:37.525Z,100525.09
2022-10-23T08:17:09.909Z,100447.16
2022-10-23T08:19:38.256Z,100525.09
2022-10-23T08:22:06.267Z,100529.69
2022-10-23T08:24:35.633Z,100526.81
2022-10-23T08:27:12.630Z,100532.19
2022-10-23T08:30:09.307Z,100521.75
2022-10-23T08:32:49.765Z,100532.19
2022-10-23T08:35:20.885Z,100532.19
2022-10-23T08:37:50.680Z,100529.66
2022-10-23T08:40:25.078Z,100467.94
2022-10-23T08:42:57.462Z,100538.53
2022-10-23T08:45:33.212Z,100535.84
2022-10-23T08:48:07.940Z,100546.59
2022-10-23T08:50:42.136Z,100542.78
2022-10-23T08:53:34.820Z,100540.91
2022-10-23T08:56:11.645Z,100465.72
2022-10-23T08:58:46.234Z,100546.00
2022-10-23T09:01:37.644Z,100538.69
2022-10-23T09:04:06.796Z,100556.72
2022-10-23T09:06:43.819Z,100550.53
2022-10-23T09:09:30.511Z,100549.69
2022-10-23T09:12:04.948Z,100526.31
2022-10-23T09:14:57.061Z,100553.38
2022-10-23T09:17:27.798Z,100559.41
2022-10-23T09:20:02.981Z,100558.75
2022-10-23T09:22:31.031Z,100557.88
2022-10-23T09:24:59.443Z,100564.94
2022-10-23T09:27:35.563Z,100553.97
2022-10-23T09:30:03.993Z,100546.38
2022-10-23T09:32:39.757Z,100491.44
2022-10-23T09:35:09.471Z,100488.59
2022-10-23T09:38:02.174Z,100482.38
2022-10-23T09:40:39.439Z,100568.66
2022-10-23T09:43:22.376Z,100569.19
2022-10-23T09:45:59.956Z,100572.84
2022-10-23T09:48:29.102Z,100570.88
2022-10-23T09:51:05.390Z,100569.19
2022-10-23T09:53:38.105Z,100567.47
2022-10-23T09:56:11.953Z,100584.31
2022-10-23T09:58:54.947Z,100434.13
2022-10-23T10:01:27.224Z,100593.38
2022-10-23T10:03:55.601Z,100516.28
2022-10-23T10:06:25.860Z,100592.38
2022-10-23T10:08:56.914Z,100588.66
2022-10-23T10:11:33.020Z,100594.03
2022-10-23T10:14:32.243Z,100590.69
2022-10-23T10:17:21.773Z,100434.28
2022-10-23T10:20:09.652Z,100585.59
2022-10-23T10:22:44.322Z,100567.28
2022-10-23T10:25:19.808Z,100432.75
2022-10-23T10:27:59.019Z,100600.56
2022-10-23T10:30:37.127Z,100521.63
2022-10-23T10:33:15.678Z,100595.03
2022-10-23T10:35:54.150Z,100572.38
2022-10-23T10:38:42.855Z,100597.72
2022-10-23T10:41:56.858Z,100590.69
2022-10-23T10:44:49.053Z,100573.75
2022-10-23T10:47:27.983Z,100585.31
2022-10-23T10:50:09.079Z,100506.97
2022-10-23T10:52:49.237Z,100505.53
2022-10-23T10:55:30.957Z,100585.97
2022-10-23T10:58:04.424Z,100585.31
2022-10-23T11:00:36.391Z,100592.38
2022-10-23T11:03:24.254Z,100584.31
2022-10-23T11:05:56.965Z,100584.31
2022-10-23T11:08:44.399Z,100577.13
2022-10-23T11:11:30.450Z,100590.38
2022-10-23T11:13:59.562Z,100594.03
2022-10-23T11:16:31.696Z,100585.00
2022-10-23T11:19:13.154Z,100588.00
2022-10-23T11:21:50.691Z,100507.53
2022-10-23T11:24:52.389Z,100592.06
2022-10-23T11:27:36.874Z,100593.75
2022-10-23T11:30:24.023Z,100592.06
2022-10-23T11:33:20.792Z,100589.53
2022-10-23T11:36:14.409Z,100591.75
2022-10-23T11:38:45.903Z,100524.13
2022-10-23T11:41:26.684Z,100607.59
2022-10-23T11:44:01.668Z,100509.63
2022-10-23T11:46:35.402Z,100595.56
2022-10-23T11:49:07.446Z,100582.13
2022-10-23T11:51:40.931Z,100497.88
2022-10-23T11:54:26.367Z,100593.44
2022-10-23T11:57:16.829Z,100586.91
2022-10-23T11:59:59.586Z,100583.22
2022-10-23T12:02:36.970Z,100580.38
2022-10-23T12:05:10.561Z,100580.22
2022-10-23T12:07:43.332Z,100582.22
2022-10-23T12:10:24.821Z,100583.22
2022-10-23T12:12:58.342Z,100591.25
2022-10-23T12:15:34.260Z,100587.91
2022-10-23T12:18:15.873Z,100582.69
2022-10-23T12:20:54.778Z,100583.53
2022-10-23T12:23:53.401Z,100574.78
2022-10-23T12:26:46.049Z,100500.38
2022-10-23T12:29:27.889Z,100497.59
2022-10-23T12:32:09.367Z,100571.38
2022-10-23T12:34:49.799Z,100576.75
2022-10-23T12:37:54.789Z,100500.97
2022-10-23T12:40:30.467Z,100575.06
2022-10-23T12:43:03.339Z,100564.50
2022-10-23T12:45:34.606Z,100571.66
2022-10-23T12:48:03.163Z,100577.88
2022-10-23T12:50:34.472Z,100559.81
2022-10-23T12:53:06.847Z,100582.41
2022-10-23T12:55:51.157Z,100588.63
2022-10-23T12:58:23.388Z,100576.06
2022-10-23T13:00:54.142Z,100501.28
2022-10-23T13:03:24.457Z,100491.91
2022-10-23T13:05:55.859Z,100422.06
2022-10-23T13:08:30.100Z,100573.66
2022-10-23T13:11:04.547Z,100537.25
2022-10-23T13:13:35.144Z,100436.16
2022-10-23T13:16:16.285Z,100489.38
2022-10-23T13:18:45.184Z,100566.28
2022-10-23T13:21:21.356Z,100558.00
2022-10-23T13:23:50.827Z,100501.81
2022-10-23T13:26:32.588Z,100575.34
2022-10-23T13:29:09.466Z,100569.97
2022-10-23T13:31:39.213Z,100566.56
2022-10-23T13:34:21.143Z,100552.78
2022-10-23T13:37:01.567Z,100569.97
2022-10-23T13:39:33.073Z,100514.19
2022-10-23T13:42:12.718Z,100562.22
2022-10-23T13:44:42.888Z,100484.91
2022-10-23T13:47:15.248Z,100422.41
2022-10-23T13:49:45.296Z,100563.81
2022-10-23T13:52:18.634Z,100570.28
2022-10-23T13:54:51.668Z,100531.66
2022-10-23T13:57:26.272Z,100508.59
2022-10-23T13:59:57.125Z,100568.59
2022-10-23T14:02:28.999Z,100429.47
2022-10-23T14:04:57.432Z,100560.13
2022-10-23T14:07:30.838Z,100557.03
2022-10-23T14:10:00.484Z,100509.72
2022-10-23T14:12:34.959Z,100563.22
2022-10-23T14:15:12.635Z,100564.91
2022-10-23T14:17:45.305Z,100450.28
2022-10-23T14:20:17.382Z,100551.38
2022-10-23T14:22:48.261Z,100514.78
2022-10-23T14:25:17.028Z,100543.22
2022-10-23T14:27:49.078Z,100529.13
2022-10-23T14:30:19.029Z,100565.91
2022-10-23T14:32:53.967Z,100527.41
2022-10-23T14:35:25.781Z,100554.16
2022-10-23T14:37:54.412Z,100538.22
2022-10-23T14:40:24.693Z,100554.16
2022-10-23T14:43:01.585Z,100528.50
2022-10-23T14:45:31.569Z,100548.78
2022-10-23T14:48:04.650Z,100551.47
2022-10-23T14:50:37.343Z,100434.84
2022-10-23T14:53:08.597Z,100551.47
2022-10-23T14:55:44.168Z,100554.00
2022-10-23T14:58:17.141Z,100557.53
2022-10-23T15:00:50.597Z,100524.81
2022-10-23T15:03:22.660Z,100552.16
2022-10-23T15:05:51.493Z,100566.56
2022-10-23T15:08:20.417Z,100543.41
2022-10-23T15:10:52.702Z,100548.78
2022-10-23T15:13:22.844Z,100409.09
2022-10-23T15:15:51.080Z,100534.94
2022-10-23T15:18:19.841Z,100545.09
2022-10-23T15:20:54.161Z,100538.59
2022-10-23T15:23:22.528Z,100465.06
2022-10-23T15:25:57.774Z,100541.28
2022-10-23T15:28:28.343Z,100490.72
2022-10-23T15:30:57.000Z,100541.44
2022-10-23T15:33:33.428Z,100408.09
2022-10-23T15:36:01.627Z,100527.88
2022-10-23T15:38:30.256Z,100532.97
2022-10-23T15:41:16.199Z,100473.31
2022-10-23T15:43:55.208Z,100554.16
2022-10-23T15:46:23.573Z,100543.84
2022-10-23T15:48:57.957Z,100463.75
2022-10-23T15:51:26.273Z,100445.00
2022-10-23T15:53:54.382Z,100546.78
2022-10-23T15:56:23.751Z,100544.78
2022-10-23T15:58:55.224Z,100535.75
2022-10-23T16:01:28.707Z,100540.16
2022-10-23T16:03:56.736Z,100478.78
2022-10-23T16:06:24.933Z,100553.56
2022-10-23T16:11:24.688Z,100544.78
2022-10-23T16:13:56.332Z,100543.97
2022-10-23T16:16:24.951Z,100545.78
2022-10-23T16:18:53.133Z,100542.94
2022-10-23T16:21:23.177Z,100539.41
2022-10-23T16:23:52.540Z,100548.47
2022-10-23T16:26:21.143Z,100538.59
2022-10-23T16:28:50.151Z,100545.63
2022-10-23T16:31:21.321Z,100408.22
2022-10-23T16:33:50.543Z,100550.16
2022-10-23T16:36:19.343Z,100379.34
2022-10-23T16:38:47.418Z,100430.34
2022-10-23T16:41:16.047Z,100547.09
2022-10-23T16:43:44.124Z,100542.41
2022-10-23T16:46:15.526Z,100534.28
2022-10-23T16:48:45.365Z,100545.09
2022-10-23T16:51:15.606Z,100548.78
2022-10-23T16:53:44.717Z,100548.78
2022-10-23T16:56:15.381Z,100554.16
2022-10-23T16:58:43.928Z,100491.63
2022-10-23T17:01:19.332Z,100558.16
2022-10-23T17:03:51.527Z,100559.53
2022-10-23T17:06:21.980Z,100560.38
2022-10-23T17:08:50.828Z,100559.53
2022-10-23T17:11:23.538Z,100559.53
2022-10-23T17:13:58.483Z,100551.47
2022-10-23T17:16:36.970Z,100540.25
2022-10-23T17:19:15.870Z,100557.84
2022-10-23T17:21:52.396Z,100475.03
2022-10-23T17:24:21.158Z,100559.53
2022-10-23T17:26:52.055Z,100547.69
2022-10-23T17:29:20.140Z,100547.09
2022-10-23T17:31:52.146Z,100536.97
2022-10-23T17:34:24.080Z,100472.72
2022-10-23T17:36:56.059Z,100554.16
2022-10-23T17:39:30.224Z,100559.81
2022-10-23T17:41:59.457Z,100549.47
2022-10-23T17:44:30.631Z,100474.44
2022-10-23T17:46:58.938Z,100458.06
2022-10-23T17:49:28.468Z,100534.34
2022-10-23T17:51:58.381Z,100469.06
2022-10-23T17:54:28.155Z,100550.47
2022-10-23T17:56:56.646Z,100535.19
2022-10-23T17:59:25.751Z,100545.09
2022-10-23T18:01:56.852Z,100532.97
2022-10-23T18:04:24.966Z,100539.72
2022-10-23T18:06:54.969Z,100538.03
2022-10-23T18:09:23.749Z,100538.03
2022-10-23T18:11:52.947Z,100537.03
2022-10-23T18:14:26.235Z,100536.06
2022-10-23T18:16:57.677Z,100532.34
2022-10-23T18:19:25.719Z,100528.16
2022-10-23T18:21:57.625Z,100528.97
2022-10-23T18:24:26.783Z,100527.59
2022-10-23T18:26:58.006Z,100538.03
2022-10-23T18:29:26.206Z,100530.13
2022-10-23T18:31:54.543Z,100461.00
2022-10-23T18:34:24.268Z,100520.22
2022-10-23T18:36:57.781Z,100523.91
2022-10-23T18:39:27.284Z,100448.50
2022-10-23T18:42:00.508Z,100536.34
2022-10-23T18:44:30.221Z,100530.97
2022-10-23T18:47:00.604Z,100529.28
2022-10-23T18:49:29.192Z,100515.31
2022-10-23T18:52:01.054Z,100447.88
2022-10-23T18:54:29.765Z,100522.91
2022-10-23T18:56:58.762Z,100525.59
2022-10-23T18:59:29.129Z,100522.91
2022-10-23T19:01:59.384Z,100522.22
2022-10-23T19:04:35.548Z,100423.53
2022-10-23T19:07:07.758Z,100514.16
2022-10-23T19:09:36.373Z,100521.34
2022-10-23T19:12:06.165Z,100506.72
2022-10-23T19:14:34.356Z,100517.16
2022-10-23T19:17:05.640Z,100513.75
2022-10-23T19:19:37.380Z,100522.06
2022-10-23T19:22:33.604Z,100518.53
2022-10-23T19:25:17.306Z,100520.22
2022-10-23T19:28:01.575Z,100518.38
2022-10-23T19:30:30.060Z,100520.22
2022-10-23T19:33:32.963Z,100520.22
2022-10-23T19:36:05.220Z,100519.38
2022-10-23T19:38:35.821Z,100516.84
2022-10-23T19:41:04.976Z,100504.72
2022-10-23T19:43:33.114Z,100354.97
2022-10-23T19:46:06.352Z,100509.50
2022-10-23T19:48:39.628Z,100505.09
2022-10-23T19:51:09.423Z,100346.63
2022-10-23T19:53:38.967Z,100428.09
2022-10-23T19:56:10.590Z,100502.41
2022-10-23T19:58:40.861Z,100497.03
2022-10-23T20:01:10.914Z,100497.03
2022-10-23T20:03:39.307Z,100498.75
2022-10-23T20:06:10.208Z,100412.84
2022-10-23T20:08:42.727Z,100479.84
2022-10-23T20:11:19.512Z,100446.59
2022-10-23T20:13:49.253Z,100489.69
2022-10-23T20:16:19.464Z,100482.63
2022-10-23T20:18:48.938Z,100459.38
2022-10-23T20:21:17.504Z,100471.88
2022-10-23T20:23:46.984Z,100384.38
2022-10-23T20:26:17.299Z,100459.44
2022-10-23T20:28:48.647Z,100454.34
2022-10-23T20:31:19.851Z,100442.25
2022-10-23T20:33:48.444Z,100454.91
2022-10-23T20:36:24.910Z,100451.38
2022-10-23T20:38:55.042Z,100450.38
2022-10-23T20:41:28.639Z,100448.69
2022-10-23T20:43:57.286Z,100439.94
2022-10-23T20:46:27.120Z,100403.63
2022-10-23T20:49:02.023Z,100446.00
2022-10-23T20:51:30.311Z,100373.34
2022-10-23T20:54:00.091Z,100455.75
2022-10-23T20:56:32.667Z,100455.75
2022-10-23T20:59:03.697Z,100454.06
2022-10-23T21:01:35.326Z,100378.69
2022-10-23T21:04:06.925Z,100461.13
2022-10-23T21:06:46.165Z,100363.28
2022-10-23T21:09:32.714Z,100411.84
2022-10-23T21:12:01.094Z,100447.72
2022-10-23T21:14:29.814Z,100448.69
2022-10-23T21:16:58.647Z,100448.69
2022-10-23T21:19:26.716Z,100450.38
2022-10-23T21:21:58.119Z,100369.03
2022-10-23T21:24:27.660Z,100288.59
2022-10-23T21:26:59.104Z,100355.81
2022-10-23T21:29:27.152Z,100439.34
2022-10-23T21:31:56.150Z,100283.34
2022-10-23T21:34:25.324Z,100433.97
2022-10-23T21:37:12.292Z,100436.81
2022-10-23T21:39:43.043Z,100355.91
2022-10-23T21:42:12.129Z,100427.50
2022-10-23T21:44:40.658Z,100358.84
2022-10-23T21:47:09.994Z,100433.13
2022-10-23T21:49:41.037Z,100418.06
2022-10-23T21:52:09.135Z,100423.22
2022-10-23T21:54:37.180Z,100358.31
2022-10-23T21:57:06.851Z,100434.94
2022-10-23T21:59:35.907Z,100428.59
2022-10-23T22:02:04.886Z,100444.72
2022-10-23T22:04:33.689Z,100364.22
2022-10-23T22:07:02.800Z,100373.25
2022-10-23T22:09:31.065Z,100449.22
2022-10-23T22:12:00.834Z,100455.47
2022-10-23T22:14:30.398Z,100432.66
2022-10-23T22:16:59.147Z,100455.47
2022-10-23T22:19:27.201Z,100318.19
2022-10-23T22:21:55.517Z,100459.13
2022-10-23T22:24:23.536Z,100464.50
2022-10-23T22:26:53.786Z,100463.97
2022-10-23T22:29:23.584Z,100467.19
2022-10-23T22:31:53.608Z,100384.28
2022-10-23T22:34:28.612Z,100477.25
2022-10-23T22:37:10.561Z,100393.03
2022-10-23T22:39:38.665Z,100487.84
2022-10-23T22:42:07.359Z,100473.56
2022-10-23T22:44:36.692Z,100397.56
2022-10-23T22:47:07.116Z,100398.25
2022-10-23T22:49:35.398Z,100457.44
2022-10-23T22:52:05.547Z,100298.34
2022-10-23T22:54:34.543Z,100474.56
2022-10-23T22:57:02.877Z,100369.03
2022-10-23T22:59:30.969Z,100363.66
2022-10-23T23:01:59.491Z,100376.09
2022-10-23T23:04:44.324Z,100440.88
2022-10-23T23:07:14.037Z,100461.13
2022-10-23T23:09:44.145Z,100473.56
2022-10-23T23:12:14.136Z,100470.88
2022-10-23T23:14:43.663Z,100468.19
2022-10-23T23:17:12.357Z,100464.81
2022-10-23T23:19:41.831Z,100460.59
2022-10-23T23:22:10.365Z,100476.94
2022-10-23T23:24:38.413Z,100468.19
2022-10-23T23:27:06.625Z,100473.56
2022-10-23T23:29:35.115Z,100473.56
2022-10-23T23:32:03.153Z,100460.44
2022-10-23T23:34:31.380Z,100403.31
2022-10-23T23:37:01.179Z,100462.81
2022-10-23T23:39:29.772Z,100464.50
2022-10-23T23:41:58.001Z,100461.81
2022-10-23T23:44:26.176Z,100459.13
2022-10-23T23:46:54.620Z,100454.59
2022-10-23T23:49:22.853Z,100459.13
2022-10-23T23:51:51.938Z,100453.75
2022-10-23T23:54:21.822Z,100300.72
2022-10-23T23:56:50.400Z,100454.75
2022-10-23T23:59:18.876Z,100434.28
